createdAt,value
2019-02-11T00:01:34.465Z,1.40
2019-02-11T00:04:03.338Z,1.47
2019-02-11T00:06:32.258Z,1.70
2019-02-11T00:09:01.038Z,2.17
2019-02-11T00:11:29.815Z,1.67
2019-02-11T00:13:58.589Z,2.02
2019-02-11T00:16:27.364Z,2.00
2019-02-11T00:18:56.137Z,1.87
2019-02-11T00:21:24.903Z,1.70
2019-02-11T00:23:53.680Z,2.45
2019-02-11T00:26:22.549Z,2.27
2019-02-11T00:28:51.325Z,2.10
2019-02-11T00:31:20.162Z,2.15
2019-02-11T00:33:49.309Z,1.90
2019-02-11T00:36:18.505Z,2.22
2019-02-11T00:38:47.601Z,2.25
2019-02-11T00:41:16.373Z,1.77
2019-02-11T00:43:45.157Z,2.22
2019-02-11T00:46:13.919Z,2.35
2019-02-11T00:48:42.693Z,2.20
2019-02-11T00:51:11.719Z,2.02
2019-02-11T00:54:00.478Z,2.10
2019-02-11T00:56:29.245Z,2.37
2019-02-11T00:58:58.021Z,2.42
2019-02-11T01:01:28.943Z,2.33
2019-02-11T01:03:57.757Z,2.25
2019-02-11T01:06:26.525Z,2.55
2019-02-11T01:08:55.309Z,2.08
2019-02-11T01:11:24.453Z,2.30
2019-02-11T01:13:53.563Z,2.55
2019-02-11T01:16:22.337Z,2.50
2019-02-11T01:18:51.445Z,2.40
2019-02-11T01:21:20.256Z,2.33
2019-02-11T01:23:49.069Z,2.40
2019-02-11T01:26:17.852Z,2.45
2019-02-11T01:28:46.725Z,2.80
2019-02-11T01:31:15.500Z,2.50
2019-02-11T01:33:44.284Z,2.40
2019-02-11T01:36:13.073Z,2.22
2019-02-11T01:38:42.170Z,2.70
2019-02-11T01:41:10.953Z,2.77
2019-02-11T01:43:40.043Z,2.50
2019-02-11T01:46:08.814Z,2.42
2019-02-11T01:48:37.598Z,2.50
2019-02-11T01:51:06.381Z,2.27
2019-02-11T01:53:35.157Z,2.80
2019-02-11T01:56:03.925Z,2.15
2019-02-11T01:58:32.697Z,2.60
2019-02-11T02:01:01.478Z,2.55
2019-02-11T02:03:30.253Z,2.27
2019-02-11T02:05:59.058Z,2.27
2019-02-11T02:08:27.817Z,2.00
2019-02-11T02:10:56.616Z,2.60
2019-02-11T02:13:25.373Z,2.42
2019-02-11T02:15:54.165Z,2.10
2019-02-11T02:18:23.282Z,2.10
2019-02-11T02:20:52.383Z,2.30
2019-02-11T02:23:21.471Z,2.00
2019-02-11T02:25:50.266Z,2.05
2019-02-11T02:28:19.032Z,2.02
2019-02-11T02:30:47.802Z,2.33
2019-02-11T02:33:16.575Z,2.20
2019-02-11T02:35:45.398Z,2.80
2019-02-11T02:38:14.189Z,2.77
2019-02-11T02:40:42.966Z,2.60
2019-02-11T02:43:11.724Z,2.42
2019-02-11T02:45:40.493Z,2.30
2019-02-11T02:48:09.269Z,2.40
2019-02-11T02:50:38.074Z,2.22
2019-02-11T02:53:06.842Z,2.40
2019-02-11T02:55:36.045Z,2.35
2019-02-11T02:58:04.893Z,2.15
2019-02-11T03:00:33.677Z,2.70
2019-02-11T03:03:02.445Z,2.50
2019-02-11T03:05:31.305Z,2.45
2019-02-11T03:08:00.073Z,2.60
2019-02-11T03:10:28.865Z,2.45
2019-02-11T03:12:57.643Z,2.45
2019-02-11T03:15:26.697Z,2.30
2019-02-11T03:17:55.472Z,2.20
2019-02-11T03:20:24.621Z,2.35
2019-02-11T03:22:53.718Z,2.80
2019-02-11T03:25:22.494Z,2.35
2019-02-11T03:27:51.269Z,2.40
2019-02-11T03:30:20.298Z,2.00
2019-02-11T03:32:49.093Z,2.65
2019-02-11T03:35:17.866Z,2.42
2019-02-11T03:37:46.914Z,2.52
2019-02-11T03:40:15.670Z,2.70
2019-02-11T03:42:44.439Z,2.85
2019-02-11T03:45:16.289Z,2.40
2019-02-11T03:47:45.073Z,2.60
2019-02-11T03:50:13.912Z,2.35
2019-02-11T03:52:42.962Z,2.47
2019-02-11T03:55:11.807Z,2.60
2019-02-11T03:57:40.662Z,2.62
2019-02-11T04:00:09.973Z,2.30
2019-02-11T04:02:38.816Z,2.40
2019-02-11T04:05:07.860Z,2.90
2019-02-11T04:07:36.753Z,2.62
2019-02-11T04:10:06.349Z,2.70
2019-02-11T04:12:35.151Z,2.30
2019-02-11T04:15:04.631Z,2.30
2019-02-11T04:17:34.230Z,2.75
2019-02-11T04:20:03.318Z,2.62
2019-02-11T04:22:32.114Z,2.10
2019-02-11T04:25:01.229Z,2.35
2019-02-11T04:27:30.026Z,2.42
2019-02-11T04:29:59.392Z,2.42
2019-02-11T04:32:28.605Z,2.30
2019-02-11T04:34:57.933Z,2.40
2019-02-11T04:37:26.708Z,3.27
2019-02-11T04:39:55.475Z,2.65
2019-02-11T04:42:24.245Z,3.42
2019-02-11T04:44:53.026Z,3.02
2019-02-11T04:47:21.810Z,2.70
2019-02-11T04:49:50.580Z,3.10
2019-02-11T04:52:19.340Z,2.60
2019-02-11T04:54:48.114Z,3.30
2019-02-11T04:57:17.230Z,3.10
2019-02-11T04:59:46.125Z,2.60
2019-02-11T05:02:15.119Z,2.37
2019-02-11T05:04:44.193Z,2.40
2019-02-11T05:07:12.965Z,2.45
2019-02-11T05:09:42.001Z,2.70
2019-02-11T05:12:10.801Z,2.65
2019-02-11T05:14:43.817Z,2.55
2019-02-11T05:17:10.332Z,3.08
2019-02-11T05:19:39.096Z,2.62
2019-02-11T05:22:07.875Z,2.85
2019-02-11T05:24:36.637Z,2.80
2019-02-11T05:27:05.486Z,2.45
2019-02-11T05:29:34.339Z,2.83
2019-02-11T05:32:03.115Z,3.08
2019-02-11T05:34:32.139Z,2.70
2019-02-11T05:37:01.399Z,2.20
2019-02-11T05:39:30.457Z,2.30
2019-02-11T05:41:59.229Z,2.72
2019-02-11T05:44:28.007Z,2.20
2019-02-11T05:46:56.781Z,2.35
2019-02-11T05:49:25.555Z,3.05
2019-02-11T05:51:54.589Z,2.85
2019-02-11T05:54:23.365Z,2.45
2019-02-11T05:56:52.138Z,3.72
2019-02-11T05:59:21.211Z,2.20
2019-02-11T06:01:50.001Z,3.50
2019-02-11T06:04:19.033Z,2.72
2019-02-11T06:06:47.814Z,3.45
2019-02-11T06:09:16.679Z,2.42
2019-02-11T06:11:45.457Z,2.10
2019-02-11T06:14:14.237Z,2.10
2019-02-11T06:16:43.257Z,2.70
2019-02-11T06:19:12.025Z,1.98
2019-02-11T06:21:40.797Z,2.00
2019-02-11T06:24:09.586Z,2.17
2019-02-11T06:26:38.358Z,2.95
2019-02-11T06:29:07.160Z,1.90
2019-02-11T06:31:36.204Z,2.50
2019-02-11T06:34:05.066Z,1.60
2019-02-11T06:36:33.835Z,2.33
2019-02-11T06:39:02.859Z,2.42
2019-02-11T06:41:31.889Z,2.50
2019-02-11T06:44:00.670Z,2.25
2019-02-11T06:46:29.437Z,2.10
2019-02-11T06:48:58.705Z,2.22
2019-02-11T06:51:27.485Z,2.00
2019-02-11T06:53:56.272Z,2.42
2019-02-11T06:56:25.060Z,2.08
2019-02-11T06:58:54.085Z,2.12
2019-02-11T07:01:22.853Z,3.17
2019-02-11T07:03:51.629Z,2.27
2019-02-11T07:06:20.665Z,2.52
2019-02-11T07:08:49.455Z,3.20
2019-02-11T07:11:18.232Z,2.35
2019-02-11T07:13:47.078Z,2.30
2019-02-11T07:16:15.921Z,2.55
2019-02-11T07:18:44.948Z,2.20
2019-02-11T07:21:15.253Z,2.70
2019-02-11T07:23:44.179Z,2.60
2019-02-11T07:26:12.941Z,2.33
2019-02-11T07:28:41.720Z,2.58
2019-02-11T07:31:11.163Z,2.45
2019-02-11T07:33:40.096Z,2.37
2019-02-11T07:36:09.725Z,2.00
2019-02-11T07:38:38.486Z,2.60
2019-02-11T07:41:07.268Z,2.37
2019-02-11T07:43:57.941Z,2.20
2019-02-11T07:46:30.701Z,2.10
2019-02-11T07:48:59.459Z,2.17
2019-02-11T07:51:28.766Z,2.52
2019-02-11T07:53:57.532Z,2.05
2019-02-11T07:56:26.308Z,2.10
2019-02-11T07:58:55.085Z,2.55
2019-02-11T08:01:24.185Z,2.50
2019-02-11T08:03:52.954Z,2.42
2019-02-11T08:06:21.898Z,2.10
2019-02-11T08:08:50.674Z,2.52
2019-02-11T08:11:19.462Z,2.50
2019-02-11T08:13:48.216Z,2.37
2019-02-11T08:16:16.997Z,2.67
2019-02-11T08:18:45.849Z,1.80
2019-02-11T08:21:14.978Z,2.10
2019-02-11T08:23:43.750Z,2.42
2019-02-11T08:26:12.613Z,2.40
2019-02-11T08:28:41.375Z,2.00
2019-02-11T08:31:10.154Z,2.30
2019-02-11T08:33:38.925Z,2.35
2019-02-11T08:36:07.716Z,2.05
2019-02-11T08:38:36.493Z,2.10
2019-02-11T08:41:05.993Z,1.72
2019-02-11T08:43:34.762Z,2.10
2019-02-11T08:46:03.609Z,1.62
2019-02-11T08:48:32.372Z,1.80
2019-02-11T08:51:01.170Z,2.05
2019-02-11T08:53:29.933Z,2.50
2019-02-11T08:55:59.140Z,2.20
2019-02-11T08:58:27.914Z,1.90
2019-02-11T09:00:56.761Z,2.05
2019-02-11T09:03:25.529Z,1.87
2019-02-11T09:05:54.398Z,2.05
2019-02-11T09:08:23.186Z,2.10
2019-02-11T09:10:52.825Z,1.90
2019-02-11T09:13:21.965Z,1.90
2019-02-11T09:15:55.327Z,1.90
2019-02-11T09:18:21.390Z,2.20
2019-02-11T09:20:50.178Z,2.08
2019-02-11T09:23:19.017Z,1.92
2019-02-11T09:25:47.811Z,1.98
2019-02-11T09:28:16.573Z,1.70
2019-02-11T09:30:45.427Z,2.08
2019-02-11T09:33:14.603Z,2.45
2019-02-11T09:35:43.457Z,2.15
2019-02-11T09:38:12.318Z,1.90
2019-02-11T09:40:41.117Z,2.30
2019-02-11T09:43:09.956Z,2.42
2019-02-11T09:45:39.061Z,1.98
2019-02-11T09:48:07.917Z,2.22
2019-02-11T09:50:48.403Z,2.20
2019-02-11T09:53:17.278Z,2.02
2019-02-11T09:55:46.133Z,1.77
2019-02-11T09:58:14.915Z,2.10
2019-02-11T10:00:43.769Z,1.77
2019-02-11T10:03:12.541Z,1.75
2019-02-11T10:05:41.699Z,1.70
2019-02-11T10:08:10.807Z,2.00
2019-02-11T10:10:39.578Z,1.80
2019-02-11T10:13:08.794Z,2.50
2019-02-11T10:15:37.557Z,1.87
2019-02-11T10:18:06.410Z,2.33
2019-02-11T10:20:35.261Z,2.05
2019-02-11T10:23:04.413Z,2.30
2019-02-11T10:25:33.173Z,2.30
2019-02-11T10:28:04.749Z,1.70
2019-02-11T10:30:33.733Z,2.20
2019-02-11T10:33:02.590Z,2.20
2019-02-11T10:35:31.509Z,2.37
2019-02-11T10:38:00.275Z,2.02
2019-02-11T10:40:29.041Z,2.35
2019-02-11T10:42:57.816Z,1.90
2019-02-11T10:45:26.975Z,2.20
2019-02-11T10:47:55.824Z,2.65
2019-02-11T10:50:24.664Z,2.10
2019-02-11T10:52:53.522Z,2.10
2019-02-11T10:55:22.537Z,1.95
2019-02-11T10:57:51.481Z,2.15
2019-02-11T11:00:22.030Z,2.42
2019-02-11T11:02:50.889Z,2.42
2019-02-11T11:05:19.815Z,2.12
2019-02-11T11:07:48.717Z,2.20
2019-02-11T11:10:20.850Z,2.17
2019-02-11T11:12:49.890Z,2.87
2019-02-11T11:15:19.658Z,2.25
2019-02-11T11:17:48.933Z,2.62
2019-02-11T11:20:18.136Z,2.05
2019-02-11T11:22:47.593Z,2.65
2019-02-11T11:25:17.399Z,2.65
2019-02-11T11:27:46.327Z,2.20
2019-02-11T11:30:16.154Z,2.22
2019-02-11T11:32:45.516Z,2.27
2019-02-11T11:35:15.130Z,2.67
2019-02-11T11:37:43.971Z,2.30
2019-02-11T11:40:14.721Z,2.50
2019-02-11T11:42:43.877Z,2.55
2019-02-11T11:45:14.778Z,2.27
2019-02-11T11:47:43.725Z,1.90
2019-02-11T11:50:12.844Z,1.87
2019-02-11T11:52:42.212Z,2.60
2019-02-11T11:55:12.534Z,2.02
2019-02-11T11:57:41.313Z,1.45
2019-02-11T12:00:19.851Z,1.50
2019-02-11T12:03:00.140Z,2.40
2019-02-11T12:05:19.408Z,1.87
2019-02-11T12:07:48.241Z,2.00
2019-02-11T12:10:17.184Z,1.82
2019-02-11T12:12:46.103Z,2.33
2019-02-11T12:15:16.179Z,2.25
2019-02-11T12:17:45.823Z,2.15
2019-02-11T12:20:14.727Z,2.10
2019-02-11T12:22:43.641Z,2.55
2019-02-11T12:25:13.591Z,2.37
2019-02-11T12:27:42.541Z,3.00
2019-02-11T12:30:14.356Z,3.92
2019-02-11T12:32:43.281Z,3.17
2019-02-11T12:35:12.929Z,2.10
2019-02-11T12:38:00.944Z,1.75
2019-02-11T12:40:29.936Z,2.95
2019-02-11T12:42:58.878Z,2.45
2019-02-11T12:45:27.731Z,2.58
2019-02-11T12:47:56.526Z,2.40
2019-02-11T12:50:25.905Z,2.77
2019-02-11T12:52:54.818Z,1.95
2019-02-11T12:55:23.601Z,2.45
2019-02-11T12:57:52.383Z,2.20
2019-02-11T13:00:22.126Z,1.80
2019-02-11T13:02:51.023Z,2.52
2019-02-11T13:05:22.714Z,2.10
2019-02-11T13:07:50.937Z,2.40
2019-02-11T13:10:20.516Z,2.22
2019-02-11T13:12:49.535Z,2.30
2019-02-11T13:15:34.732Z,2.55
2019-02-11T13:17:49.194Z,1.92
2019-02-11T13:20:18.250Z,2.05
2019-02-11T13:22:47.185Z,2.30
2019-02-11T13:25:16.507Z,2.83
2019-02-11T13:27:45.671Z,2.15
2019-02-11T13:30:16.768Z,2.55
2019-02-11T13:32:45.710Z,2.40
2019-02-11T13:35:14.565Z,2.35
2019-02-11T13:37:43.493Z,2.42
2019-02-11T13:40:12.410Z,2.50
2019-02-11T13:42:41.274Z,2.30
2019-02-11T13:45:12.618Z,2.57
2019-02-11T13:47:53.242Z,2.12
2019-02-11T13:50:15.337Z,2.60
2019-02-11T13:52:44.287Z,2.30
2019-02-11T13:55:13.318Z,2.47
2019-02-11T13:57:42.235Z,2.62
2019-02-11T14:00:17.722Z,2.23
2019-02-11T14:02:51.780Z,3.35
2019-02-11T14:05:21.127Z,2.15
2019-02-11T14:07:50.083Z,2.40
2019-02-11T14:10:19.295Z,2.20
2019-02-11T14:12:48.898Z,1.85
2019-02-11T14:15:20.524Z,2.27
2019-02-11T14:17:48.542Z,2.30
2019-02-11T14:20:19.784Z,2.40
2019-02-11T14:22:48.921Z,2.22
2019-02-11T14:25:18.219Z,2.30
2019-02-11T14:27:47.216Z,2.37
2019-02-11T14:30:17.030Z,2.70
2019-02-11T14:32:46.024Z,2.08
2019-02-11T14:35:15.659Z,3.52
2019-02-11T14:37:44.451Z,2.60
2019-02-11T14:40:13.789Z,2.70
2019-02-11T14:42:42.723Z,2.00
2019-02-11T14:45:12.284Z,2.47
2019-02-11T14:47:44.190Z,2.30
2019-02-11T14:50:12.070Z,2.05
2019-02-11T14:52:41.269Z,2.08
2019-02-11T14:55:10.497Z,1.90
2019-02-11T14:57:39.640Z,8.50
2019-02-11T15:00:13.776Z,2.60
2019-02-11T15:02:42.571Z,2.22
2019-02-11T15:05:11.873Z,2.25
2019-02-11T15:07:41.054Z,2.60
2019-02-11T15:10:10.040Z,2.20
2019-02-11T15:12:39.252Z,2.30
2019-02-11T15:15:08.348Z,2.30
2019-02-11T15:17:37.780Z,2.25
2019-02-11T15:20:08.410Z,2.50
2019-02-11T15:22:37.513Z,2.25
2019-02-11T15:25:08.066Z,2.00
2019-02-11T15:27:38.242Z,3.80
2019-02-11T15:30:08.753Z,2.20
2019-02-11T15:32:37.553Z,1.95
2019-02-11T15:35:07.149Z,2.00
2019-02-11T15:37:36.040Z,3.00
2019-02-11T15:40:05.998Z,2.00
2019-02-11T15:42:34.768Z,2.40
2019-02-11T15:45:03.943Z,2.30
2019-02-11T15:47:32.738Z,2.62
2019-02-11T15:50:01.833Z,2.00
2019-02-11T15:52:30.914Z,2.25
2019-02-11T15:54:59.698Z,2.40
2019-02-11T15:57:28.481Z,3.40
2019-02-11T15:59:57.245Z,2.40
2019-02-11T16:02:26.025Z,2.42
2019-02-11T16:05:02.181Z,3.62
2019-02-11T16:07:27.869Z,2.35
2019-02-11T16:09:56.894Z,2.30
2019-02-11T16:12:25.741Z,2.55
2019-02-11T16:14:54.527Z,3.52
2019-02-11T16:17:23.624Z,3.30
2019-02-11T16:19:52.674Z,2.90
2019-02-11T16:22:21.810Z,2.58
2019-02-11T16:24:50.581Z,2.15
2019-02-11T16:27:19.696Z,2.60
2019-02-11T16:29:48.790Z,2.90
2019-02-11T16:32:17.645Z,3.00
2019-02-11T16:34:46.769Z,2.80
2019-02-11T16:37:15.561Z,2.77
2019-02-11T16:39:44.350Z,2.15
2019-02-11T16:42:13.436Z,3.00
2019-02-11T16:44:42.199Z,3.10
2019-02-11T16:47:11.049Z,2.80
2019-02-11T16:49:39.833Z,2.35
2019-02-11T16:52:08.925Z,2.83
2019-02-11T16:54:38.303Z,2.92
2019-02-11T16:57:07.464Z,3.17
2019-02-11T16:59:36.519Z,16.40
2019-02-11T17:02:05.690Z,7.78
2019-02-11T17:04:34.481Z,3.45
2019-02-11T17:07:03.584Z,2.58
2019-02-11T17:09:32.349Z,3.47
2019-02-11T17:12:01.126Z,6.20
2019-02-11T17:14:30.348Z,2.60
2019-02-11T17:16:59.116Z,3.08
2019-02-11T17:19:27.959Z,2.80
2019-02-11T17:21:57.317Z,2.70
2019-02-11T17:24:26.382Z,2.80
2019-02-11T17:26:56.152Z,2.85
2019-02-11T17:29:25.212Z,2.75
2019-02-11T17:31:54.253Z,2.45
2019-02-11T17:34:23.023Z,3.20
2019-02-11T17:36:52.486Z,3.98
2019-02-11T17:39:21.252Z,3.45
2019-02-11T17:41:50.012Z,3.67
2019-02-11T17:44:18.788Z,2.80
2019-02-11T17:46:47.567Z,3.35
2019-02-11T17:49:17.976Z,3.17
2019-02-11T17:52:07.869Z,2.98
2019-02-11T17:54:37.278Z,2.87
2019-02-11T17:57:06.573Z,3.83
2019-02-11T17:59:35.667Z,3.80
2019-02-11T18:02:07.698Z,3.20
2019-02-11T18:04:36.482Z,3.35
2019-02-11T18:07:05.256Z,2.95
2019-02-11T18:09:34.034Z,2.60
2019-02-11T18:12:04.042Z,3.20
2019-02-11T18:14:33.120Z,3.80
2019-02-11T18:17:01.908Z,3.17
2019-02-11T18:19:30.697Z,2.90
2019-02-11T18:22:00.521Z,3.05
2019-02-11T18:24:29.305Z,3.05
2019-02-11T18:26:58.081Z,3.30
2019-02-11T18:29:26.935Z,3.22
2019-02-11T18:31:56.371Z,3.10
2019-02-11T18:34:25.174Z,3.27
2019-02-11T18:36:54.563Z,3.62
2019-02-11T18:39:23.697Z,3.20
2019-02-11T18:41:52.846Z,3.72
2019-02-11T18:44:21.626Z,2.95
2019-02-11T18:46:50.728Z,4.25
2019-02-11T18:49:19.577Z,4.15
2019-02-11T18:51:48.473Z,3.37
2019-02-11T18:54:17.263Z,2.98
2019-02-11T18:56:46.038Z,3.02
2019-02-11T18:59:14.901Z,3.90
2019-02-11T19:01:44.281Z,4.37
2019-02-11T19:04:13.104Z,4.15
2019-02-11T19:06:42.704Z,4.00
2019-02-11T19:09:16.643Z,4.08
2019-02-11T19:11:45.737Z,3.42
2019-02-11T19:14:14.762Z,3.47
2019-02-11T19:16:43.785Z,3.10
2019-02-11T19:19:12.566Z,3.87
2019-02-11T19:21:41.585Z,3.25
2019-02-11T19:24:10.617Z,3.08
2019-02-11T19:26:39.650Z,3.98
2019-02-11T19:29:08.769Z,5.65
2019-02-11T19:31:37.542Z,3.58
2019-02-11T19:34:06.372Z,4.12
2019-02-11T19:36:35.500Z,3.12
2019-02-11T19:39:05.452Z,2.92
2019-02-11T19:41:34.590Z,2.60
2019-02-11T19:44:03.710Z,3.40
2019-02-11T19:46:32.486Z,2.77
2019-02-11T19:49:02.922Z,3.10
2019-02-11T19:51:31.694Z,3.70
2019-02-11T19:54:00.496Z,3.98
2019-02-11T19:56:29.266Z,5.08
2019-02-11T19:58:58.594Z,3.15
2019-02-11T20:01:27.933Z,3.35
2019-02-11T20:03:56.737Z,3.52
2019-02-11T20:06:26.018Z,3.80
2019-02-11T20:08:54.874Z,3.42
2019-02-11T20:11:23.637Z,2.92
2019-02-11T20:13:52.519Z,3.50
2019-02-11T20:16:21.410Z,3.37
2019-02-11T20:18:50.214Z,3.50
2019-02-11T20:21:18.990Z,3.40
2019-02-11T20:23:47.775Z,2.90
2019-02-11T20:26:16.934Z,3.10
2019-02-11T20:28:46.921Z,3.60
2019-02-11T20:31:15.684Z,3.62
2019-02-11T20:33:44.458Z,3.30
2019-02-11T20:36:13.300Z,3.70
2019-02-11T20:38:42.136Z,4.50
2019-02-11T20:41:10.982Z,3.10
2019-02-11T20:43:39.766Z,5.35
2019-02-11T20:46:08.874Z,3.77
2019-02-11T20:48:38.238Z,3.55
2019-02-11T20:51:07.334Z,3.95
2019-02-11T20:53:36.130Z,3.58
2019-02-11T20:56:05.055Z,3.37
2019-02-11T20:58:33.822Z,3.50
2019-02-11T21:01:03.019Z,4.60
2019-02-11T21:03:31.836Z,3.20
2019-02-11T21:06:00.806Z,3.90
2019-02-11T21:08:29.583Z,3.02
2019-02-11T21:10:58.357Z,3.15
2019-02-11T21:13:27.141Z,3.72
2019-02-11T21:15:55.913Z,3.33
2019-02-11T21:18:24.686Z,3.75
2019-02-11T21:20:53.469Z,4.42
2019-02-11T21:23:22.237Z,3.60
2019-02-11T21:25:51.101Z,3.60
2019-02-11T21:28:20.187Z,4.03
2019-02-11T21:30:49.454Z,3.00
2019-02-11T21:33:18.597Z,3.47
2019-02-11T21:35:47.753Z,3.08
2019-02-11T21:38:16.532Z,4.12
2019-02-11T21:40:45.653Z,3.85
2019-02-11T21:43:14.450Z,4.05
2019-02-11T21:45:43.546Z,5.60
2019-02-11T21:48:12.360Z,4.90
2019-02-11T21:50:41.149Z,4.35
2019-02-11T21:53:09.954Z,5.30
2019-02-11T21:55:38.729Z,5.20
2019-02-11T21:58:07.603Z,5.97
2019-02-11T22:00:36.520Z,5.78
2019-02-11T22:03:05.395Z,6.37
2019-02-11T22:05:34.422Z,5.30
2019-02-11T22:08:03.459Z,5.10
2019-02-11T22:10:32.564Z,5.05
2019-02-11T22:13:01.748Z,4.83
2019-02-11T22:15:30.948Z,4.40
2019-02-11T22:17:59.717Z,4.72
2019-02-11T22:20:34.526Z,4.45
2019-02-11T22:22:58.994Z,4.50
2019-02-11T22:25:28.054Z,5.10
2019-02-11T22:27:56.840Z,4.83
2019-02-11T22:30:25.692Z,4.50
2019-02-11T22:32:55.019Z,5.47
2019-02-11T22:35:24.141Z,3.98
2019-02-11T22:37:52.917Z,4.33
2019-02-11T22:40:21.770Z,4.53
2019-02-11T22:42:50.560Z,4.75
2019-02-11T22:45:38.564Z,4.75
2019-02-11T22:48:07.663Z,4.47
2019-02-11T22:50:43.052Z,4.90
2019-02-11T22:53:06.928Z,5.12
2019-02-11T22:55:35.711Z,5.75
2019-02-11T22:58:04.776Z,5.45
2019-02-11T23:00:45.563Z,5.15
2019-02-11T23:03:14.880Z,5.67
2019-02-11T23:05:44.157Z,5.60
2019-02-11T23:08:13.336Z,7.15
2019-02-11T23:10:42.190Z,6.30
2019-02-11T23:13:11.127Z,5.95
2019-02-11T23:15:39.974Z,5.22
2019-02-11T23:18:08.839Z,4.85
2019-02-11T23:20:37.608Z,3.83
2019-02-11T23:23:06.462Z,4.17
2019-02-11T23:25:35.229Z,4.90
2019-02-11T23:28:04.076Z,4.37
2019-02-11T23:30:33.187Z,4.03
2019-02-11T23:33:02.500Z,3.83
2019-02-11T23:35:31.281Z,3.45
2019-02-11T23:38:00.224Z,3.65
2019-02-11T23:40:29.370Z,3.90
2019-02-11T23:42:59.852Z,3.80
2019-02-11T23:45:28.896Z,4.53
2019-02-11T23:47:57.680Z,5.03
2019-02-11T23:50:26.545Z,4.67
2019-02-11T23:52:55.330Z,4.15
2019-02-11T23:55:24.445Z,4.80
2019-02-11T23:57:53.246Z,4.80
